Time,TemperatureF,DewpointF,PressureIn,WindDirection,WindDirectionDegrees,WindSpeedMPH,WindSpeedGustMPH,Humidity,HourlyPrecipIn,Conditions,Clouds,dailyrainin,SoftwareType,DateUTC
2011-02-15 00:03:00,34.3,19.3,30.02,ESE,112,0.0,0.7,54,0.00,,,0.00,open2300-1.11,2011-02-15 07:03:00,
2011-02-15 00:11:00,33.6,19.1,30.03,East,90,0.0,0.0,55,0.00,,,0.00,open2300-1.11,2011-02-15 07:11:00,
2011-02-15 00:21:00,33.3,19.2,30.04,East,90,0.0,0.0,56,0.00,,,0.00,open2300-1.11,2011-02-15 07:21:00,
2011-02-15 00:31:00,32.9,18.8,30.04,ESE,112,0.0,0.0,56,0.00,,,0.00,open2300-1.11,2011-02-15 07:31:00,
2011-02-15 00:41:00,32.9,19.3,30.04,East,90,0.0,0.0,57,0.00,,,0.00,open2300-1.11,2011-02-15 07:41:00,
2011-02-15 00:51:00,32.7,19.1,30.03,East,90,0.0,0.0,57,0.00,,,0.00,open2300-1.11,2011-02-15 07:51:00,
2011-02-15 01:01:00,32.4,18.8,30.04,East,90,0.0,0.0,57,0.00,,,0.00,open2300-1.11,2011-02-15 08:01:00,
2011-02-15 01:11:00,32.2,19.1,30.04,East,90,0.0,0.0,58,0.00,,,0.00,open2300-1.11,2011-02-15 08:11:00,
2011-02-15 01:21:00,31.8,18.7,30.04,East,90,0.0,0.0,58,0.00,,,0.00,open2300-1.11,2011-02-15 08:21:00,
2011-02-15 01:31:00,31.6,19.0,30.04,East,90,0.0,1.1,59,0.00,,,0.00,open2300-1.11,2011-02-15 08:31:00,
2011-02-15 01:41:00,31.5,18.8,30.04,East,90,0.0,0.0,59,0.00,,,0.00,open2300-1.11,2011-02-15 08:41:00,
2011-02-15 01:51:00,31.3,19.0,30.04,East,90,0.0,0.0,60,0.00,,,0.00,open2300-1.11,2011-02-15 08:51:00,
2011-02-15 02:01:00,30.7,18.9,30.03,South,180,0.0,1.1,61,0.00,,,0.00,open2300-1.11,2011-02-15 09:01:00,
2011-02-15 02:11:00,30.7,19.2,30.03,East,90,3.6,4.7,62,0.00,,,0.00,open2300-1.11,2011-02-15 09:11:00,
2011-02-15 02:21:00,31.3,20.1,30.04,SE,135,3.8,3.8,63,0.00,,,0.00,open2300-1.11,2011-02-15 09:21:00,
2011-02-15 02:31:00,31.1,19.6,30.05,SE,135,0.0,3.8,62,0.00,,,0.00,open2300-1.11,2011-02-15 09:31:00,
2011-02-15 02:41:00,30.7,19.6,30.05,SE,135,0.0,0.0,63,0.00,,,0.00,open2300-1.11,2011-02-15 09:41:00,
2011-02-15 02:51:00,30.6,19.4,30.04,SE,135,0.0,0.0,63,0.00,,,0.00,open2300-1.11,2011-02-15 09:51:00,
2011-02-15 03:01:00,30.6,19.4,30.04,SE,135,0.0,4.0,63,0.00,,,0.00,open2300-1.11,2011-02-15 10:01:00,
2011-02-15 03:11:00,30.7,19.6,30.04,SE,135,0.0,0.0,63,0.00,,,0.00,open2300-1.11,2011-02-15 10:11:00,
2011-02-15 03:21:00,30.7,19.6,30.04,SSE,157,0.0,0.0,63,0.00,,,0.00,open2300-1.11,2011-02-15 10:21:00,
2011-02-15 03:31:00,30.6,19.4,30.04,SSE,157,0.0,0.0,63,0.00,,,0.00,open2300-1.11,2011-02-15 10:31:00,
2011-02-15 03:41:00,30.7,19.9,30.03,SE,135,0.0,1.3,64,0.00,,,0.00,open2300-1.11,2011-02-15 10:41:00,
2011-02-15 03:51:00,30.7,19.6,30.04,ESE,112,1.3,3.4,63,0.00,,,0.00,open2300-1.11,2011-02-15 10:51:00,
2011-02-15 04:01:00,31.1,19.9,30.04,SSE,157,0.0,3.6,63,0.00,,,0.00,open2300-1.11,2011-02-15 11:01:00,
2011-02-15 04:11:00,31.3,20.1,30.05,East,90,1.3,5.6,63,0.00,,,0.00,open2300-1.11,2011-02-15 11:11:00,
2011-02-15 04:21:00,31.3,19.8,30.05,SE,135,0.0,1.3,62,0.00,,,0.00,open2300-1.11,2011-02-15 11:21:00,
2011-02-15 04:32:00,31.1,19.9,30.04,ENE,67,0.0,5.6,63,0.00,,,0.00,open2300-1.11,2011-02-15 11:32:00,
2011-02-15 04:41:00,31.1,19.9,30.05,ESE,112,0.0,0.0,63,0.00,,,0.00,open2300-1.11,2011-02-15 11:41:00,
2011-02-15 04:51:00,30.9,19.8,30.05,ESE,112,0.0,0.0,63,0.00,,,0.00,open2300-1.11,2011-02-15 11:51:00,
2011-02-15 05:01:00,30.7,19.6,30.06,ESE,112,0.0,0.0,63,0.00,,,0.00,open2300-1.11,2011-02-15 12:01:00,
2011-02-15 05:11:00,30.7,19.6,30.06,East,90,1.1,3.1,63,0.00,,,0.00,open2300-1.11,2011-02-15 12:11:00,
2011-02-15 05:21:00,30.7,19.6,30.05,South,180,0.0,1.8,63,0.00,,,0.00,open2300-1.11,2011-02-15 12:21:00,
2011-02-15 05:31:00,30.6,19.4,30.05,South,180,0.0,0.0,63,0.00,,,0.00,open2300-1.11,2011-02-15 12:31:00,
2011-02-15 05:41:00,30.6,19.8,30.06,ESE,112,0.0,0.9,64,0.00,,,0.00,open2300-1.11,2011-02-15 12:41:00,
2011-02-15 05:51:00,30.7,19.9,30.05,ESE,112,4.0,4.0,64,0.00,,,0.00,open2300-1.11,2011-02-15 12:51:00,
2011-02-15 06:01:00,30.6,19.4,30.05,SSE,157,0.0,4.0,63,0.00,,,0.00,open2300-1.11,2011-02-15 13:01:00,
2011-02-15 06:11:00,30.4,19.2,30.06,SSE,157,0.0,0.0,63,0.00,,,0.00,open2300-1.11,2011-02-15 13:11:00,
2011-02-15 06:21:00,30.4,19.2,30.05,ENE,67,0.0,4.7,63,0.00,,,0.00,open2300-1.11,2011-02-15 13:21:00,
2011-02-15 06:31:00,30.4,19.6,30.05,NNE,22,0.7,2.0,64,0.00,,,0.00,open2300-1.11,2011-02-15 13:31:00,
2011-02-15 06:41:00,30.6,19.8,30.06,ENE,67,0.7,5.6,64,0.00,,,0.00,open2300-1.11,2011-02-15 13:41:00,
2011-02-15 06:51:00,30.6,19.8,30.06,ENE,67,4.7,4.7,64,0.00,,,0.00,open2300-1.11,2011-02-15 13:51:00,
2011-02-15 07:01:00,30.7,19.9,30.06,ENE,67,3.4,4.7,64,0.00,,,0.00,open2300-1.11,2011-02-15 14:01:00,
2011-02-15 07:11:00,30.6,19.4,30.06,ESE,112,0.0,3.4,63,0.00,,,0.00,open2300-1.11,2011-02-15 14:11:00,
2011-02-15 07:21:00,30.4,19.2,30.06,ENE,67,0.0,4.2,63,0.00,,,0.00,open2300-1.11,2011-02-15 14:21:00,
2011-02-15 07:31:00,30.4,19.2,30.06,ENE,67,0.0,0.0,63,0.00,,,0.00,open2300-1.11,2011-02-15 14:31:00,
2011-02-15 07:41:00,30.4,19.2,30.07,SSE,157,0.0,1.1,63,0.00,,,0.00,open2300-1.11,2011-02-15 14:41:00,
2011-02-15 07:51:00,30.4,19.2,30.07,SSE,157,0.0,3.4,63,0.00,,,0.00,open2300-1.11,2011-02-15 14:51:00,
2011-02-15 08:01:00,30.7,19.6,30.07,SSE,157,0.0,2.7,63,0.00,,,0.00,open2300-1.11,2011-02-15 15:01:00,
2011-02-15 08:11:00,31.6,20.5,30.08,SSE,157,0.0,4.9,63,0.00,,,0.00,open2300-1.11,2011-02-15 15:11:00,
2011-02-15 08:21:00,32.4,20.8,30.08,SSE,157,0.0,0.7,62,0.00,,,0.00,open2300-1.11,2011-02-15 15:21:00,
2011-02-15 08:31:00,33.1,21.5,30.08,SSE,157,0.0,2.2,62,0.00,,,0.00,open2300-1.11,2011-02-15 15:31:00,
2011-02-15 08:41:00,34.2,22.1,30.08,SE,135,0.9,1.3,61,0.00,,,0.00,open2300-1.11,2011-02-15 15:41:00,
2011-02-15 08:51:00,34.9,22.5,30.07,SE,135,0.4,1.6,60,0.00,,,0.00,open2300-1.11,2011-02-15 15:51:00,
2011-02-15 09:01:00,36.0,23.1,30.08,SE,135,0.0,2.2,59,0.00,,,0.00,open2300-1.11,2011-02-15 16:01:00,
2011-02-15 09:11:00,37.2,23.8,30.07,SE,135,2.2,2.2,58,0.00,,,0.00,open2300-1.11,2011-02-15 16:11:00,
2011-02-15 09:21:00,38.5,24.6,30.07,ENE,67,1.8,2.2,58,0.00,,,0.00,open2300-1.11,2011-02-15 16:21:00,
2011-02-15 09:31:00,39.6,24.6,30.07,SSE,157,0.7,2.9,55,0.00,,,0.00,open2300-1.11,2011-02-15 16:31:00,
2011-02-15 09:41:00,41.4,25.4,30.07,South,180,2.0,3.1,53,0.00,,,0.00,open2300-1.11,2011-02-15 16:41:00,
2011-02-15 09:51:00,43.2,26.3,30.07,SSE,157,0.0,2.0,51,0.00,,,0.00,open2300-1.11,2011-02-15 16:51:00,
2011-02-15 10:01:00,44.4,26.4,30.07,South,180,0.0,0.7,49,0.00,,,0.00,open2300-1.11,2011-02-15 17:01:00,
2011-02-15 10:11:00,46.0,26.3,30.07,ESE,112,2.0,2.0,46,0.00,,,0.00,open2300-1.11,2011-02-15 17:11:00,
2011-02-15 10:21:00,46.6,25.7,30.06,ESE,112,0.0,2.0,44,0.00,,,0.00,open2300-1.11,2011-02-15 17:21:00,
2011-02-15 10:31:00,47.3,25.2,30.06,SSW,202,0.0,0.9,42,0.00,,,0.00,open2300-1.11,2011-02-15 17:31:00,
2011-02-15 10:41:00,48.0,25.9,30.06,WSW,247,3.8,3.8,42,0.00,,,0.00,open2300-1.11,2011-02-15 17:41:00,
2011-02-15 10:51:00,48.2,25.5,30.06,WNW,292,0.0,4.7,41,0.00,,,0.00,open2300-1.11,2011-02-15 17:51:00,
2011-02-15 11:01:00,48.7,25.5,30.06,WNW,292,0.0,2.2,40,0.00,,,0.00,open2300-1.11,2011-02-15 18:01:00,
2011-02-15 11:11:00,49.8,25.8,30.05,WSW,247,5.4,5.4,39,0.00,,,0.00,open2300-1.11,2011-02-15 18:11:00,
2011-02-15 11:21:00,50.7,25.9,30.05,WNW,292,0.9,6.7,38,0.00,,,0.00,open2300-1.11,2011-02-15 18:21:00,
2011-02-15 11:31:00,51.1,26.9,30.05,West,270,2.2,2.2,39,0.00,,,0.00,open2300-1.11,2011-02-15 18:31:00,
2011-02-15 11:41:00,52.3,27.3,30.04,WSW,247,0.0,3.8,38,0.00,,,0.00,open2300-1.11,2011-02-15 18:41:00,
2011-02-15 12:01:00,53.8,28.6,30.02,WNW,292,1.1,2.5,38,0.00,,,0.00,open2300-1.11,2011-02-15 19:01:00,
2011-02-15 12:11:00,54.1,28.3,30.02,NW,315,2.2,4.5,37,0.00,,,0.00,open2300-1.11,2011-02-15 19:11:00,
2011-02-15 12:21:00,54.5,29.3,30.02,WSW,247,3.6,5.6,38,0.00,,,0.00,open2300-1.11,2011-02-15 19:21:00,
2011-02-15 12:31:00,55.2,29.2,30.02,WSW,247,5.6,5.6,37,0.00,,,0.00,open2300-1.11,2011-02-15 19:31:00,
2011-02-15 12:41:00,55.8,28.3,30.01,SW,225,6.3,6.7,35,0.00,,,0.00,open2300-1.11,2011-02-15 19:41:00,
2011-02-15 12:51:00,56.5,29.6,30.01,NW,315,3.4,6.3,36,0.00,,,0.00,open2300-1.11,2011-02-15 19:51:00,
2011-02-15 13:01:00,56.5,28.9,30.01,WNW,292,0.0,3.4,35,0.00,,,0.00,open2300-1.11,2011-02-15 20:01:00,
2011-02-15 13:11:00,57.2,30.3,30.00,WNW,292,0.0,3.8,36,0.00,,,0.00,open2300-1.11,2011-02-15 20:11:00,
2011-02-15 13:21:00,57.9,29.5,29.99,WSW,247,6.0,6.0,34,0.00,,,0.00,open2300-1.11,2011-02-15 20:21:00,
2011-02-15 13:31:00,58.3,30.5,29.99,WSW,247,1.6,6.0,35,0.00,,,0.00,open2300-1.11,2011-02-15 20:31:00,
2011-02-15 13:41:00,58.8,30.3,29.98,WNW,292,0.0,1.6,34,0.00,,,0.00,open2300-1.11,2011-02-15 20:41:00,
2011-02-15 13:51:00,58.1,29.7,29.98,NE,45,0.0,1.8,34,0.00,,,0.00,open2300-1.11,2011-02-15 20:51:00,
2011-02-15 14:01:00,58.5,30.0,29.97,East,90,0.0,0.0,34,0.00,,,0.00,open2300-1.11,2011-02-15 21:01:00,
2011-02-15 14:11:00,59.4,30.1,29.97,NNW,337,0.0,0.0,33,0.00,,,0.00,open2300-1.11,2011-02-15 21:11:00,
2011-02-15 14:21:00,59.5,28.1,29.97,ESE,112,2.7,2.9,30,0.00,,,0.00,open2300-1.11,2011-02-15 21:21:00,
2011-02-15 14:32:00,59.9,28.4,29.97,ESE,112,0.0,2.7,30,0.00,,,0.00,open2300-1.11,2011-02-15 21:32:00,
2011-02-15 14:41:00,60.6,29.7,29.96,North,0,0.9,1.1,31,0.00,,,0.00,open2300-1.11,2011-02-15 21:41:00,
2011-02-15 14:51:00,61.2,27.5,29.96,NE,45,0.0,0.9,28,0.00,,,0.00,open2300-1.11,2011-02-15 21:51:00,
2011-02-15 15:01:00,60.6,29.0,29.96,WNW,292,0.0,0.0,30,0.00,,,0.00,open2300-1.11,2011-02-15 22:01:00,
2011-02-15 15:11:00,60.4,26.0,29.96,SSE,157,0.0,2.7,27,0.00,,,0.00,open2300-1.11,2011-02-15 22:11:00,
2011-02-15 15:21:00,61.3,25.8,29.95,ESE,112,0.0,4.7,26,0.00,,,0.00,open2300-1.11,2011-02-15 22:21:00,
2011-02-15 15:31:00,62.2,26.5,29.96,ESE,112,0.0,0.0,26,0.00,,,0.00,open2300-1.11,2011-02-15 22:31:00,
2011-02-15 15:41:00,62.1,25.4,29.95,SE,135,1.1,1.1,25,0.00,,,0.00,open2300-1.11,2011-02-15 22:41:00,
2011-02-15 15:51:00,62.4,23.8,29.95,WSW,247,0.0,2.5,23,0.00,,,0.00,open2300-1.11,2011-02-15 22:51:00,
2011-02-15 16:01:00,62.6,23.9,29.95,WSW,247,0.0,0.9,23,0.00,,,0.00,open2300-1.11,2011-02-15 23:01:00,
2011-02-15 16:11:00,63.3,24.5,29.95,WSW,247,1.3,1.3,23,0.00,,,0.00,open2300-1.11,2011-02-15 23:11:00,
2011-02-15 16:21:00,63.3,26.5,29.95,WNW,292,1.6,1.8,25,0.00,,,0.00,open2300-1.11,2011-02-15 23:21:00,
2011-02-15 16:31:00,63.7,26.8,29.95,WNW,292,0.0,5.4,25,0.00,,,0.00,open2300-1.11,2011-02-15 23:31:00,
2011-02-15 16:41:00,63.7,26.8,29.95,WNW,292,0.0,1.6,25,0.00,,,0.00,open2300-1.11,2011-02-15 23:41:00,
2011-02-15 16:51:00,62.8,26.0,29.95,WNW,292,0.0,0.0,25,0.00,,,0.00,open2300-1.11,2011-02-15 23:51:00,
2011-02-15 17:01:00,62.4,26.7,29.95,WNW,292,0.0,0.9,26,0.00,,,0.00,open2300-1.11,2011-02-16 00:01:00,
2011-02-15 17:11:00,60.3,25.8,29.95,WNW,292,0.0,0.0,27,0.00,,,0.00,open2300-1.11,2011-02-16 00:11:00,
2011-02-15 17:21:00,58.1,23.0,29.95,WNW,292,0.0,0.0,26,0.00,,,0.00,open2300-1.11,2011-02-16 00:21:00,
2011-02-15 17:31:00,55.6,22.7,29.95,WNW,292,0.0,0.0,28,0.00,,,0.00,open2300-1.11,2011-02-16 00:31:00,
2011-02-15 17:41:00,54.1,23.4,29.95,WNW,292,0.0,0.0,30,0.00,,,0.00,open2300-1.11,2011-02-16 00:41:00,
2011-02-15 17:51:00,52.3,21.9,29.95,WNW,292,0.0,0.0,30,0.00,,,0.00,open2300-1.11,2011-02-16 00:51:00,
2011-02-15 18:01:00,51.1,21.4,29.95,ENE,67,0.0,0.0,31,0.00,,,0.00,open2300-1.11,2011-02-16 01:01:00,
2011-02-15 18:11:00,50.2,21.3,29.94,ENE,67,0.0,0.0,32,0.00,,,0.00,open2300-1.11,2011-02-16 01:11:00,
2011-02-15 18:21:00,49.3,21.9,29.94,ENE,67,0.0,0.0,34,0.00,,,0.00,open2300-1.11,2011-02-16 01:21:00,
2011-02-15 18:31:00,48.4,21.8,29.94,WNW,292,0.0,0.0,35,0.00,,,0.00,open2300-1.11,2011-02-16 01:31:00,
2011-02-15 18:41:00,47.8,21.3,29.95,ESE,112,0.7,0.7,35,0.00,,,0.00,open2300-1.11,2011-02-16 01:41:00,
2011-02-15 18:51:00,47.7,21.2,29.94,East,90,6.3,6.3,35,0.00,,,0.00,open2300-1.11,2011-02-16 01:51:00,
2011-02-15 19:01:00,47.7,21.2,29.94,East,90,4.7,6.3,35,0.00,,,0.00,open2300-1.11,2011-02-16 02:01:00,
2011-02-15 19:11:00,47.5,21.0,29.94,ENE,67,6.3,6.3,35,0.00,,,0.00,open2300-1.11,2011-02-16 02:11:00,
2011-02-15 19:21:00,47.3,20.8,29.94,East,90,4.7,7.6,35,0.00,,,0.00,open2300-1.11,2011-02-16 02:21:00,
2011-02-15 19:31:00,47.1,20.7,29.94,ENE,67,4.7,6.7,35,0.00,,,0.00,open2300-1.11,2011-02-16 02:31:00,
2011-02-15 19:41:00,47.1,20.7,29.94,East,90,4.9,11.4,35,0.00,,,0.00,open2300-1.11,2011-02-16 02:41:00,
2011-02-15 19:51:00,47.1,20.7,29.94,ESE,112,6.0,8.7,35,0.00,,,0.00,open2300-1.11,2011-02-16 02:51:00,
2011-02-15 20:01:00,46.9,20.5,29.94,East,90,6.9,8.5,35,0.00,,,0.00,open2300-1.11,2011-02-16 03:01:00,
2011-02-15 20:11:00,46.9,20.5,29.94,ESE,112,3.4,10.5,35,0.00,,,0.00,open2300-1.11,2011-02-16 03:11:00,
2011-02-15 20:21:00,46.2,19.9,29.94,SE,135,2.5,4.9,35,0.00,,,0.00,open2300-1.11,2011-02-16 03:21:00,
2011-02-15 20:31:00,45.7,20.0,29.94,ENE,67,7.2,8.5,36,0.00,,,0.00,open2300-1.11,2011-02-16 03:31:00,
2011-02-15 20:41:00,45.7,20.0,29.94,East,90,5.1,7.2,36,0.00,,,0.00,open2300-1.11,2011-02-16 03:41:00,
2011-02-15 20:51:00,45.5,20.5,29.94,East,90,5.8,6.5,37,0.00,,,0.00,open2300-1.11,2011-02-16 03:51:00,
2011-02-15 21:01:00,45.0,20.1,29.94,ENE,67,8.3,8.3,37,0.00,,,0.00,open2300-1.11,2011-02-16 04:01:00,
2011-02-15 21:11:00,44.6,20.4,29.94,East,90,5.6,9.4,38,0.00,,,0.00,open2300-1.11,2011-02-16 04:11:00,
2011-02-15 21:21:00,44.8,20.6,29.94,ENE,67,5.4,11.4,38,0.00,,,0.00,open2300-1.11,2011-02-16 04:21:00,
2011-02-15 21:31:00,44.4,20.2,29.93,East,90,6.0,6.0,38,0.00,,,0.00,open2300-1.11,2011-02-16 04:31:00,
2011-02-15 21:41:00,43.9,20.4,29.93,East,90,7.4,8.5,39,0.00,,,0.00,open2300-1.11,2011-02-16 04:41:00,
2011-02-15 21:51:00,43.9,19.8,29.92,East,90,6.7,8.7,38,0.00,,,0.00,open2300-1.11,2011-02-16 04:51:00,
2011-02-15 22:11:00,44.4,20.2,29.92,ESE,112,0.0,10.7,38,0.00,,,0.00,open2300-1.11,2011-02-16 05:11:00,
2011-02-15 22:21:00,43.5,20.1,29.92,East,90,2.5,5.8,39,0.00,,,0.00,open2300-1.11,2011-02-16 05:21:00,
2011-02-15 22:31:00,43.0,19.6,29.91,East,90,6.3,6.5,39,0.00,,,0.00,open2300-1.11,2011-02-16 05:31:00,
2011-02-15 22:41:00,42.6,20.0,29.91,East,90,12.3,12.3,40,0.00,,,0.00,open2300-1.11,2011-02-16 05:41:00,
2011-02-15 22:51:00,42.1,20.0,29.91,ESE,112,0.0,12.3,41,0.00,,,0.00,open2300-1.11,2011-02-16 05:51:00,
2011-02-15 23:01:00,41.9,19.8,29.90,East,90,13.2,13.2,41,0.00,,,0.00,open2300-1.11,2011-02-16 06:01:00,
2011-02-15 23:11:00,42.1,20.0,29.90,East,90,4.9,13.2,41,0.00,,,0.00,open2300-1.11,2011-02-16 06:11:00,
2011-02-15 23:21:00,42.1,20.0,29.89,ESE,112,2.0,4.9,41,0.00,,,0.00,open2300-1.11,2011-02-16 06:21:00,
2011-02-15 23:31:00,41.7,19.7,29.89,ESE,112,3.4,10.1,41,0.00,,,0.00,open2300-1.11,2011-02-16 06:31:00,
2011-02-15 23:41:00,41.5,20.0,29.89,ESE,112,2.0,6.9,42,0.00,,,0.00,open2300-1.11,2011-02-16 06:41:00,
2011-02-15 23:51:00,41.5,20.0,29.89,East,90,4.5,6.7,42,0.00,,,0.00,open2300-1.11,2011-02-16 06:51:00,